Canyondam, California
Current Conditions -  °F | °C
As of 6:55 PM on Tuesday 25 Nov 2014 (Local Time) from KCIC Reporting Station
Clear Clear  
Wind Chill: 54°   Ceiling: Unl
Heat Index: 54°   Visibility: 10mi
Dew Point: 46°   Wind: 6mph
Humidity: 77%   Direction: 60°ENE
Pressure: 30.38"   Gusts: NA
Location:  40.17°N, 121.07°W
Report Text: KCIC 260255Z AUTO 06005KT 10SM CLR 12/08 A3038 RMK AO1
Loading
Personal Weather Stations






























Interactive Weather Map New forecast layout! Learn more

10-Day Weather Forecast

Advertisements
Track Severe Weather on mobile